Time;durP1;ratioP1;P1;durP2;ratioP2;P2;SDS_P1;SDS_P2;PMS_P1;PMS_P2;Temp;Humidity;BMP_temperature;BMP_pressure;BME280_temperature;BME280_humidity;BME280_pressure;Samples;Min_cycle;Max_cycle;Signal;HPM_P1;HPM_P2
2022/04/09 00:00:21;;;;;;;11.02;4.75;;;4.50;77.90;;;;;;4887964;29;20053;-86
2022/04/09 00:02:48;;;;;;;10.73;4.63;;;4.50;77.90;;;;;;4888268;29;20055;-86
2022/04/09 00:05:15;;;;;;;10.77;5.28;;;4.50;77.90;;;;;;4884309;29;20113;-86
2022/04/09 00:07:42;;;;;;;12.75;5.30;;;4.50;77.90;;;;;;4884432;29;20136;-86
2022/04/09 00:10:11;;;;;;;12.77;5.85;;;4.50;77.90;;;;;;4888206;29;20057;-85
2022/04/09 00:12:39;;;;;;;11.65;5.28;;;4.40;77.90;;;;;;4887917;29;20065;-86
2022/04/09 00:15:06;;;;;;;15.57;6.45;;;4.40;77.90;;;;;;4890364;29;20051;-85
2022/04/09 00:17:41;;;;;;;14.43;6.25;;;4.40;77.90;;;;;;4898584;29;20056;-85
2022/04/09 00:20:12;;;;;;;14.13;6.38;;;4.40;77.90;;;;;;4883534;29;20513;-86
2022/04/09 00:22:40;;;;;;;18.17;6.95;;;4.40;77.90;;;;;;4884593;29;20105;-85
2022/04/09 00:25:09;;;;;;;19.70;7.22;;;4.40;77.90;;;;;;4887847;29;20049;-87
2022/04/09 00:27:36;;;;;;;16.30;6.60;;;4.40;78.00;;;;;;4887618;29;20479;-85
2022/04/09 00:30:04;;;;;;;15.52;6.85;;;4.40;78.00;;;;;;4887581;29;20466;-85
2022/04/09 00:32:31;;;;;;;15.15;6.50;;;4.40;78.00;;;;;;4885934;29;20112;-85
2022/04/09 00:34:59;;;;;;;17.42;6.47;;;4.30;78.00;;;;;;4883313;29;20102;-86
2022/04/09 00:37:25;;;;;;;12.50;5.93;;;4.30;78.00;;;;;;4886049;29;20053;-86
2022/04/09 00:39:53;;;;;;;15.43;6.30;;;4.30;78.00;;;;;;4887689;29;20057;-86
2022/04/09 00:42:20;;;;;;;11.82;6.25;;;4.30;78.10;;;;;;4887266;29;20475;-85
2022/04/09 00:44:47;;;;;;;10.77;6.22;;;4.30;78.10;;;;;;4887260;29;20583;-85
2022/04/09 00:47:14;;;;;;;14.13;6.40;;;4.30;78.10;;;;;;4883318;29;20048;-85
2022/04/09 00:49:41;;;;;;;12.35;6.93;;;4.20;78.10;;;;;;4894678;29;20056;-86
2022/04/09 00:52:09;;;;;;;14.85;6.00;;;4.20;78.10;;;;;;4887511;29;20049;-86
2022/04/09 00:54:38;;;;;;;12.43;6.35;;;4.30;78.10;;;;;;4887305;29;20056;-86
2022/04/09 00:57:06;;;;;;;13.70;5.80;;;4.30;78.10;;;;;;4887211;29;20462;-86
2022/04/09 00:59:38;;;;;;;17.00;6.25;;;4.20;78.20;;;;;;4885338;29;20518;-85
2022/04/09 01:02:05;;;;;;;13.10;5.55;;;4.20;78.20;;;;;;4897429;29;20116;-86
2022/04/09 01:04:33;;;;;;;10.88;5.95;;;4.20;78.20;;;;;;4884685;29;20136;-85
2022/04/09 01:07:01;;;;;;;12.82;5.88;;;4.20;78.20;;;;;;4886837;29;20057;-85
2022/04/09 01:09:28;;;;;;;11.57;6.10;;;4.20;78.20;;;;;;4886997;29;20422;-86
2022/04/09 01:11:56;;;;;;;11.00;6.10;;;4.20;78.20;;;;;;4886910;29;20108;-86
2022/04/09 01:14:23;;;;;;;13.27;6.30;;;4.20;78.20;;;;;;4883673;29;20097;-85
2022/04/09 01:16:50;;;;;;;11.82;6.05;;;4.20;78.20;;;;;;4882716;29;20059;-85
2022/04/09 01:19:17;;;;;;;13.20;6.00;;;4.20;78.30;;;;;;4897077;29;20140;-85
2022/04/09 01:21:47;;;;;;;16.23;6.60;;;4.10;78.30;;;;;;4890000;29;20131;-86
2022/04/09 01:24:14;;;;;;;11.52;6.07;;;4.20;78.30;;;;;;4886709;29;20051;-85
2022/04/09 01:26:41;;;;;;;10.45;5.32;;;4.10;78.30;;;;;;4886116;29;20512;-85
2022/04/09 01:29:08;;;;;;;12.63;6.30;;;4.10;78.30;;;;;;4882052;29;20092;-86
2022/04/09 01:31:35;;;;;;;12.25;6.38;;;4.10;78.30;;;;;;4883956;29;20053;-86
2022/04/09 01:34:02;;;;;;;10.40;6.18;;;4.10;78.30;;;;;;4896496;29;20048;-86
2022/04/09 01:36:29;;;;;;;9.82;5.72;;;4.10;78.40;;;;;;4891635;29;20088;-85
2022/04/09 01:38:56;;;;;;;13.55;6.03;;;4.10;78.40;;;;;;4886608;29;20064;-86
2022/04/09 01:41:23;;;;;;;12.55;5.75;;;4.10;78.40;;;;;;4883412;29;20096;-86
2022/04/09 01:43:50;;;;;;;10.68;5.40;;;4.00;78.40;;;;;;4882171;29;20052;-87
2022/04/09 01:46:17;;;;;;;10.65;5.38;;;4.00;78.40;;;;;;4896474;29;20406;-86
2022/04/09 01:48:44;;;;;;;12.85;5.80;;;4.00;78.50;;;;;;4889690;29;20124;-87
2022/04/09 01:51:10;;;;;;;11.07;5.57;;;4.00;78.50;;;;;;4886528;29;20048;-86
2022/04/09 01:53:38;;;;;;;12.63;5.82;;;4.00;78.50;;;;;;4885108;29;20085;-86
2022/04/09 01:56:06;;;;;;;13.38;6.13;;;4.00;78.50;;;;;;4881228;29;20429;-86
2022/04/09 01:58:33;;;;;;;14.98;6.45;;;4.00;78.50;;;;;;4883675;29;20057;-86
2022/04/09 02:01:00;;;;;;;11.85;5.65;;;4.00;78.50;;;;;;4886279;29;20053;-85
2022/04/09 02:03:27;;;;;;;18.45;6.10;;;4.00;78.60;;;;;;4886278;29;20045;-86
2022/04/09 02:05:54;;;;;;;13.32;5.75;;;4.00;78.60;;;;;;4886246;29;20466;-85
2022/04/09 02:08:21;;;;;;;12.43;5.82;;;4.00;78.50;;;;;;4882761;29;20112;-86
2022/04/09 02:10:48;;;;;;;11.43;5.25;;;4.00;78.60;;;;;;4881675;29;20120;-85
2022/04/09 02:13:18;;;;;;;12.07;5.05;;;4.00;78.60;;;;;;4885563;29;20065;-87
2022/04/09 02:15:45;;;;;;;13.70;5.28;;;4.00;78.60;;;;;;4886084;29;20091;-87
2022/04/09 02:18:12;;;;;;;12.38;5.50;;;4.00;78.60;;;;;;4885992;29;20060;-86
2022/04/09 02:20:39;;;;;;;13.93;5.53;;;4.00;78.60;;;;;;4885154;29;20041;-86
2022/04/09 02:23:05;;;;;;;15.25;5.55;;;4.00;78.60;;;;;;4881555;29;20450;-87
2022/04/09 02:25:32;;;;;;;12.00;5.03;;;3.90;78.60;;;;;;4883265;29;20049;-86
2022/04/09 02:27:59;;;;;;;12.57;5.53;;;3.90;78.60;;;;;;4885980;29;20090;-85
2022/04/09 02:30:26;;;;;;;8.30;5.03;;;3.90;78.70;;;;;;4885928;29;20502;-86
2022/04/09 02:32:54;;;;;;;9.45;4.63;;;3.90;78.70;;;;;;4885944;29;20045;-86
2022/04/09 02:35:26;;;;;;;10.00;4.70;;;3.90;78.70;;;;;;4882814;29;20048;-86
2022/04/09 02:37:54;;;;;;;10.75;4.85;;;3.90;78.70;;;;;;4881484;29;20059;-85
2022/04/09 02:40:21;;;;;;;10.57;4.85;;;3.90;78.80;;;;;;4884402;29;20049;-85
2022/04/09 02:42:48;;;;;;;10.10;5.15;;;3.90;78.80;;;;;;4885844;29;20117;-86
2022/04/09 02:45:15;;;;;;;12.18;5.28;;;3.90;78.80;;;;;;4885762;29;20167;-85
2022/04/09 02:47:42;;;;;;;8.73;4.97;;;3.90;78.80;;;;;;4885042;29;20415;-86
2022/04/09 02:50:09;;;;;;;11.15;5.10;;;3.90;78.80;;;;;;4881460;29;20044;-86
2022/04/09 02:52:39;;;;;;;13.52;5.45;;;3.90;78.90;;;;;;4882977;29;20616;-86
2022/04/09 02:55:07;;;;;;;12.68;5.20;;;3.90;78.90;;;;;;4885410;29;20467;-86
2022/04/09 02:57:34;;;;;;;15.32;5.80;;;3.90;78.90;;;;;;4885644;29;20582;-85
2022/04/09 03:00:05;;;;;;;9.95;4.93;;;3.90;78.90;;;;;;4885719;29;20518;-86
2022/04/09 03:02:34;;;;;;;11.57;5.22;;;3.90;78.90;;;;;;4883776;29;20056;-85
2022/04/09 03:05:01;;;;;;;9.40;4.88;;;3.90;78.90;;;;;;4881320;29;20132;-85
2022/04/09 03:07:29;;;;;;;10.80;5.25;;;3.90;78.90;;;;;;4887205;29;20057;-86
2022/04/09 03:09:55;;;;;;;10.57;5.00;;;3.90;78.90;;;;;;4888927;29;20053;-86
2022/04/09 03:12:22;;;;;;;12.50;5.68;;;3.90;78.90;;;;;;4888977;29;20057;-86
2022/04/09 03:14:49;;;;;;;11.27;5.10;;;3.90;78.90;;;;;;4889042;29;20052;-85
2022/04/09 03:17:16;;;;;;;7.28;4.80;;;3.90;79.00;;;;;;4884119;29;20258;-86
2022/04/09 03:19:43;;;;;;;9.35;5.00;;;3.90;78.90;;;;;;4885334;29;20053;-85
2022/04/09 03:22:10;;;;;;;9.32;5.00;;;3.90;79.00;;;;;;4899688;29;20100;-85
2022/04/09 03:24:37;;;;;;;10.85;5.32;;;3.90;78.90;;;;;;4892827;29;20053;-86
2022/04/09 03:27:04;;;;;;;8.52;5.35;;;3.90;78.90;;;;;;4888996;29;20498;-85
2022/04/09 03:29:31;;;;;;;9.15;5.20;;;3.90;78.90;;;;;;4886932;29;20462;-85
2022/04/09 03:31:59;;;;;;;12.60;5.57;;;3.80;78.90;;;;;;4884557;29;20108;-86
2022/04/09 03:34:27;;;;;;;10.88;5.28;;;3.80;78.90;;;;;;4885342;29;20052;-85
2022/04/09 03:36:54;;;;;;;13.98;6.15;;;3.80;78.90;;;;;;4888598;29;20459;-85
2022/04/09 03:39:21;;;;;;;11.07;5.68;;;3.80;78.90;;;;;;4888431;29;20101;-86
2022/04/09 03:41:48;;;;;;;9.20;4.65;;;3.90;78.90;;;;;;4888495;29;20469;-86
2022/04/09 03:44:35;;;;;;;10.02;4.90;;;3.80;78.90;;;;;;4887091;29;20080;-86
2022/04/09 03:47:03;;;;;;;9.15;4.93;;;3.80;78.90;;;;;;4883944;29;20057;-86
2022/04/09 03:49:31;;;;;;;9.13;5.25;;;3.70;78.90;;;;;;4886449;29;20104;-85
2022/04/09 03:51:58;;;;;;;11.30;4.38;;;3.80;78.90;;;;;;4888127;29;20637;-86
2022/04/09 03:54:26;;;;;;;13.95;5.13;;;3.80;78.90;;;;;;4888409;29;20065;-85
2022/04/09 03:56:53;;;;;;;11.75;5.72;;;3.70;78.90;;;;;;4888298;29;20562;-86
2022/04/09 03:59:20;;;;;;;11.32;5.20;;;3.70;78.90;;;;;;4884934;29;20044;-85
2022/04/09 04:01:47;;;;;;;8.93;4.97;;;3.70;79.00;;;;;;4884099;29;20566;-86
2022/04/09 04:04:15;;;;;;;10.57;5.47;;;3.70;79.00;;;;;;4887795;29;20053;-86
2022/04/09 04:06:42;;;;;;;12.55;4.97;;;3.70;79.00;;;;;;4887860;29;20101;-86
2022/04/09 04:09:10;;;;;;;7.85;5.15;;;3.70;79.00;;;;;;4888114;29;20056;-85
2022/04/09 04:11:36;;;;;;;8.20;4.90;;;3.70;79.10;;;;;;4886802;29;20403;-86
2022/04/09 04:14:04;;;;;;;12.15;5.28;;;3.70;79.10;;;;;;4883720;29;20507;-86
2022/04/09 04:16:32;;;;;;;9.52;5.10;;;3.70;79.10;;;;;;4885723;29;20104;-86
2022/04/09 04:18:58;;;;;;;9.57;5.00;;;3.70;79.20;;;;;;4887462;29;20057;-86
2022/04/09 04:21:26;;;;;;;10.73;4.95;;;3.80;79.20;;;;;;4887609;29;20049;-86
2022/04/09 04:23:52;;;;;;;10.23;5.55;;;3.80;79.30;;;;;;4888018;29;20110;-86
2022/04/09 04:26:19;;;;;;;13.30;6.28;;;3.80;79.30;;;;;;4884321;29;20552;-86
2022/04/09 04:28:51;;;;;;;9.45;5.25;;;3.80;79.40;;;;;;4883643;29;20471;-85
2022/04/09 04:31:19;;;;;;;10.30;6.00;;;3.80;79.40;;;;;;4898115;29;20053;-86
2022/04/09 04:33:46;;;;;;;11.65;5.70;;;3.80;79.50;;;;;;4890615;29;20510;-86
2022/04/09 04:36:13;;;;;;;11.98;5.53;;;3.90;79.60;;;;;;4887300;29;20097;-85
2022/04/09 04:38:40;;;;;;;9.63;6.10;;;3.90;79.60;;;;;;4886885;29;20105;-85
2022/04/09 04:41:07;;;;;;;11.70;6.15;;;3.90;79.70;;;;;;4883292;29;20152;-85
2022/04/09 04:43:34;;;;;;;9.98;5.78;;;3.90;79.70;;;;;;4884927;29;20109;-86
2022/04/09 04:46:01;;;;;;;10.98;5.97;;;3.90;79.70;;;;;;4887432;29;20049;-86
2022/04/09 04:48:29;;;;;;;8.52;5.97;;;3.90;79.70;;;;;;4887442;29;20052;-86
2022/04/09 04:50:55;;;;;;;9.90;6.20;;;3.90;79.80;;;;;;4886948;29;20100;-87
2022/04/09 04:53:23;;;;;;;12.63;6.78;;;3.90;79.80;;;;;;4884429;29;20057;-86
2022/04/09 04:55:50;;;;;;;9.15;5.85;;;4.00;79.80;;;;;;4883121;29;20061;-86
2022/04/09 04:58:20;;;;;;;9.27;6.13;;;4.00;79.90;;;;;;4897216;29;20052;-86
2022/04/09 05:00:47;;;;;;;8.63;6.13;;;4.00;79.90;;;;;;4889960;29;20447;-86
2022/04/09 05:03:15;;;;;;;10.10;6.13;;;4.00;79.90;;;;;;4886060;29;20078;-85
2022/04/09 05:05:42;;;;;;;9.55;5.60;;;4.00;79.90;;;;;;4886239;29;20516;-86
2022/04/09 05:08:09;;;;;;;11.07;6.55;;;4.00;79.90;;;;;;4882579;29;20104;-85
2022/04/09 05:10:36;;;;;;;9.45;6.20;;;4.00;79.90;;;;;;4884266;29;20053;-86
2022/04/09 05:13:03;;;;;;;9.25;6.78;;;4.00;79.90;;;;;;4886844;29;20061;-85
2022/04/09 05:15:30;;;;;;;12.15;6.43;;;4.00;80.00;;;;;;4886952;29;20055;-85
2022/04/09 05:18:00;;;;;;;9.57;6.40;;;4.00;80.00;;;;;;4886941;29;20048;-86
2022/04/09 05:20:27;;;;;;;10.05;6.70;;;4.10;80.00;;;;;;4884112;29;20045;-86
2022/04/09 05:22:53;;;;;;;10.38;6.68;;;4.10;80.10;;;;;;4882592;29;20101;-86
2022/04/09 05:25:20;;;;;;;10.45;6.53;;;4.10;80.10;;;;;;4885923;29;20510;-86
2022/04/09 05:27:51;;;;;;;10.38;7.00;;;4.10;80.10;;;;;;4886634;29;20092;-85
2022/04/09 05:30:18;;;;;;;9.13;6.70;;;4.10;80.20;;;;;;4885884;29;20056;-86
2022/04/09 05:32:46;;;;;;;10.85;6.65;;;4.10;80.20;;;;;;4886606;29;20048;-86
2022/04/09 05:35:13;;;;;;;12.75;7.38;;;4.10;80.20;;;;;;4882144;29;20522;-86
2022/04/09 05:37:48;;;;;;;11.38;7.20;;;4.10;80.20;;;;;;4883215;29;20105;-85
2022/04/09 05:40:15;;;;;;;9.07;6.47;;;4.10;80.30;;;;;;4886189;29;20053;-86
2022/04/09 05:42:43;;;;;;;9.80;6.57;;;4.10;80.30;;;;;;4886495;29;20105;-85
2022/04/09 05:45:11;;;;;;;11.90;6.80;;;4.10;80.30;;;;;;4886496;29;20053;-87
2022/04/09 05:47:42;;;;;;;10.00;6.43;;;4.10;80.30;;;;;;4885130;29;20052;-86
2022/04/09 05:50:09;;;;;;;12.43;7.28;;;4.10;80.40;;;;;;4881746;29;20052;-85
2022/04/09 05:52:37;;;;;;;10.02;6.93;;;4.10;80.40;;;;;;4883537;29;20575;-86
2022/04/09 05:55:05;;;;;;;9.98;6.82;;;4.10;80.40;;;;;;4900041;29;20052;-86
2022/04/09 05:57:33;;;;;;;11.45;7.00;;;4.10;80.40;;;;;;4895700;29;20063;-86
2022/04/09 06:00:01;;;;;;;9.93;6.70;;;4.20;80.50;;;;;;4886015;29;20048;-86
2022/04/09 06:02:28;;;;;;;8.90;6.53;;;4.20;80.50;;;;;;4883302;29;20506;-87
2022/04/09 06:04:56;;;;;;;10.48;6.72;;;4.20;80.50;;;;;;4881749;29;20088;-86
2022/04/09 06:07:24;;;;;;;9.43;6.82;;;4.20;80.50;;;;;;4884536;29;20057;-85
2022/04/09 06:09:52;;;;;;;11.70;7.10;;;4.10;80.50;;;;;;4886208;29;20053;-86
2022/04/09 06:12:19;;;;;;;11.15;6.82;;;4.20;80.60;;;;;;4886010;29;20057;-86
2022/04/09 06:14:46;;;;;;;9.43;6.40;;;4.20;80.60;;;;;;4886056;29;20045;-86
2022/04/09 06:17:13;;;;;;;9.02;6.18;;;4.20;80.60;;;;;;4881420;29;20052;-85
2022/04/09 06:19:40;;;;;;;11.15;6.85;;;4.20;80.60;;;;;;4882693;29;20514;-86
2022/04/09 06:22:07;;;;;;;9.65;5.95;;;4.20;80.60;;;;;;4886037;29;20124;-87
2022/04/09 06:24:34;;;;;;;9.65;5.97;;;4.20;80.70;;;;;;4885625;29;20057;-86
2022/04/09 06:27:00;;;;;;;11.52;6.82;;;4.20;80.70;;;;;;4894498;29;20100;-86
2022/04/09 06:29:27;;;;;;;11.23;5.95;;;4.20;80.70;;;;;;4883369;29;20053;-86
2022/04/09 06:31:54;;;;;;;7.32;5.70;;;4.30;80.70;;;;;;4881057;29;20074;-87
2022/04/09 06:34:22;;;;;;;8.70;5.65;;;4.30;80.70;;;;;;4898934;29;20052;-86
2022/04/09 06:36:49;;;;;;;8.85;5.70;;;4.30;80.80;;;;;;4888227;29;20463;-86
2022/04/09 06:39:18;;;;;;;11.68;6.30;;;4.30;80.80;;;;;;4885691;29;20105;-86
2022/04/09 06:41:48;;;;;;;10.57;5.90;;;4.30;80.80;;;;;;4888071;29;20048;-86
2022/04/09 06:44:16;;;;;;;11.32;5.70;;;4.40;80.80;;;;;;4885633;29;20053;-86
2022/04/09 06:46:45;;;;;;;10.95;5.50;;;4.40;80.90;;;;;;4896337;29;20502;-86
2022/04/09 06:49:13;;;;;;;9.85;5.32;;;4.40;80.90;;;;;;4888866;29;20056;-85
2022/04/09 06:51:40;;;;;;;13.20;5.70;;;4.40;81.00;;;;;;4889402;29;20057;-86
2022/04/09 06:54:07;;;;;;;11.00;5.55;;;4.40;81.00;;;;;;4892072;29;20514;-86
2022/04/09 06:56:36;;;;;;;8.90;5.13;;;4.50;81.10;;;;;;4899808;29;20053;-85
2022/04/09 06:59:04;;;;;;;9.40;4.50;;;4.50;81.20;;;;;;4884684;29;20060;-85
2022/04/09 07:01:31;;;;;;;9.95;4.90;;;4.50;81.20;;;;;;4886816;29;20561;-85
2022/04/09 07:04:00;;;;;;;11.73;4.88;;;4.60;81.30;;;;;;4889315;29;20518;-86
2022/04/09 07:06:30;;;;;;;8.48;4.10;;;4.60;81.30;;;;;;4899451;29;20132;-86
2022/04/09 07:08:57;;;;;;;9.77;4.13;;;4.70;81.30;;;;;;4889009;29;20080;-86
2022/04/09 07:11:24;;;;;;;10.63;3.47;;;4.70;81.30;;;;;;4882605;29;20048;-87
2022/04/09 07:13:51;;;;;;;8.38;4.07;;;4.80;81.30;;;;;;4899129;29;20124;-86
2022/04/09 07:16:18;;;;;;;7.28;3.42;;;4.80;81.30;;;;;;4898527;29;20052;-87
2022/04/09 07:18:45;;;;;;;6.43;3.75;;;4.90;81.20;;;;;;4895922;29;20074;-86
2022/04/09 07:21:12;;;;;;;8.35;3.67;;;4.90;81.20;;;;;;4895926;29;20108;-87
2022/04/09 07:23:39;;;;;;;9.45;3.80;;;4.90;81.20;;;;;;4895820;29;20784;-86
2022/04/09 07:26:06;;;;;;;8.95;3.67;;;5.00;81.10;;;;;;4897204;29;20105;-86
2022/04/09 07:28:33;;;;;;;6.80;3.40;;;5.00;81.10;;;;;;4898711;29;20661;-86
2022/04/09 07:31:00;;;;;;;8.20;3.55;;;5.00;81.10;;;;;;4895387;29;20470;-87
2022/04/09 07:33:27;;;;;;;9.68;3.65;;;5.10;81.10;;;;;;4895756;29;20100;-86
2022/04/09 07:35:55;;;;;;;7.95;3.40;;;5.10;81.00;;;;;;4895440;29;20044;-86
2022/04/09 07:38:22;;;;;;;9.20;3.08;;;5.20;81.00;;;;;;4895587;29;20053;-86
2022/04/09 07:40:49;;;;;;;5.05;2.83;;;5.30;81.00;;;;;;4898384;29;20056;-86
2022/04/09 07:43:16;;;;;;;7.65;3.13;;;5.30;81.00;;;;;;4897016;29;20057;-87
2022/04/09 07:45:43;;;;;;;9.45;3.28;;;5.40;81.00;;;;;;4894790;29;20520;-86
2022/04/09 07:48:11;;;;;;;6.38;2.85;;;5.40;80.90;;;;;;4895401;29;20053;-86
2022/04/09 07:50:39;;;;;;;7.43;3.03;;;5.40;80.80;;;;;;4897380;29;20052;-87
2022/04/09 07:53:08;;;;;;;8.27;3.10;;;5.50;80.80;;;;;;4895807;29;20055;-88
2022/04/09 07:55:35;;;;;;;6.82;2.95;;;5.50;80.70;;;;;;4898648;29;20051;-87
2022/04/09 07:58:02;;;;;;;5.97;2.67;;;5.60;80.60;;;;;;4895129;29;20056;-87
2022/04/09 08:00:33;;;;;;;7.45;2.95;;;5.60;80.50;;;;;;4894765;29;20131;-86
2022/04/09 08:03:00;;;;;;;6.78;2.90;;;5.70;80.50;;;;;;4895122;29;20104;-87
2022/04/09 08:05:27;;;;;;;6.13;2.85;;;5.70;80.40;;;;;;4895102;29;20041;-85
2022/04/09 08:07:54;;;;;;;10.05;2.70;;;5.70;80.30;;;;;;4897154;29;20116;-86
2022/04/09 08:10:21;;;;;;;7.05;2.63;;;5.80;80.30;;;;;;4896722;29;20116;-86
2022/04/09 08:12:51;;;;;;;8.63;3.33;;;5.80;80.20;;;;;;4895360;29;20104;-86
2022/04/09 08:15:18;;;;;;;5.90;2.70;;;5.80;80.10;;;;;;4895127;29;20048;-85
2022/04/09 08:17:48;;;;;;;6.90;2.90;;;5.90;80.10;;;;;;4895375;29;20072;-85
2022/04/09 08:20:19;;;;;;;6.20;2.70;;;5.90;80.10;;;;;;4880688;29;20549;-86
2022/04/09 08:22:46;;;;;;;5.45;2.22;;;6.00;80.00;;;;;;4894967;29;20053;-85
2022/04/09 08:25:13;;;;;;;6.55;2.85;;;6.00;80.00;;;;;;4896070;29;20478;-85
2022/04/09 08:27:42;;;;;;;5.65;2.53;;;6.00;80.00;;;;;;4894610;29;20076;-85
2022/04/09 08:30:10;;;;;;;6.78;2.88;;;6.10;79.90;;;;;;4896220;29;20053;-85
2022/04/09 08:32:37;;;;;;;6.35;2.50;;;6.10;79.90;;;;;;4896359;29;20053;-85
2022/04/09 08:35:04;;;;;;;7.72;2.95;;;6.20;79.80;;;;;;4896238;29;20056;-86
2022/04/09 08:37:32;;;;;;;8.10;2.88;;;6.30;79.80;;;;;;4897522;29;20048;-85
2022/04/09 08:39:59;;;;;;;5.63;2.40;;;6.30;79.70;;;;;;4894672;29;20059;-85
2022/04/09 08:42:28;;;;;;;7.05;2.65;;;6.40;79.60;;;;;;4894175;29;20312;-85
2022/04/09 08:44:55;;;;;;;5.93;2.83;;;6.40;79.50;;;;;;4894486;29;20045;-85
2022/04/09 08:47:25;;;;;;;6.47;2.25;;;6.50;79.40;;;;;;4894616;29;20045;-86
2022/04/09 08:49:54;;;;;;;5.07;2.15;;;6.60;79.30;;;;;;4896838;29;20532;-85
2022/04/09 08:52:22;;;;;;;5.78;2.53;;;6.70;79.20;;;;;;4896201;29;20450;-85
2022/04/09 08:54:49;;;;;;;5.70;2.40;;;6.80;79.10;;;;;;4894478;29;20454;-85
2022/04/09 08:57:16;;;;;;;6.70;2.42;;;6.90;79.00;;;;;;4895524;29;20056;-85
2022/04/09 08:59:43;;;;;;;8.18;2.65;;;6.90;78.80;;;;;;4895985;29;20085;-86
2022/04/09 09:02:11;;;;;;;6.20;2.50;;;7.00;78.70;;;;;;4895159;29;20558;-85
2022/04/09 09:04:38;;;;;;;4.47;2.10;;;7.10;78.50;;;;;;4896645;29;20433;-86
2022/04/09 09:07:24;;;;;;;5.22;2.00;;;7.20;78.30;;;;;;4894013;29;20506;-86
2022/04/09 09:09:52;;;;;;;6.32;2.30;;;7.30;78.20;;;;;;4895513;29;20056;-86
2022/04/09 09:12:28;;;;;;;5.97;2.22;;;7.30;78.00;;;;;;4893469;29;20097;-85
2022/04/09 09:14:55;;;;;;;5.07;1.88;;;7.40;77.80;;;;;;4894015;29;20096;-86
2022/04/09 09:17:30;;;;;;;4.80;2.33;;;7.50;77.70;;;;;;4893994;29;20101;-85
2022/04/09 09:19:57;;;;;;;5.78;1.85;;;7.60;77.50;;;;;;4896396;29;20044;-85
2022/04/09 09:22:38;;;;;;;7.00;2.13;;;7.70;77.30;;;;;;4895599;29;20057;-85
2022/04/09 09:25:07;;;;;;;6.80;2.00;;;7.80;77.10;;;;;;4894060;29;20052;-86
2022/04/09 09:27:35;;;;;;;6.22;2.13;;;7.90;76.90;;;;;;4893555;29;20471;-86
2022/04/09 09:30:03;;;;;;;4.38;1.63;;;8.00;76.70;;;;;;4893921;29;20056;-86
2022/04/09 09:32:30;;;;;;;6.13;2.03;;;8.00;76.50;;;;;;4893709;29;20053;-86
2022/04/09 09:34:59;;;;;;;5.88;2.08;;;8.20;76.30;;;;;;4895837;29;20156;-85
2022/04/09 09:37:30;;;;;;;5.70;2.63;;;8.30;76.20;;;;;;4895946;29;20045;-85
2022/04/09 09:39:57;;;;;;;6.35;2.28;;;8.40;76.00;;;;;;4893169;29;20060;-86
2022/04/09 09:42:26;;;;;;;5.55;2.10;;;8.40;75.70;;;;;;4893424;29;20454;-85
2022/04/09 09:44:53;;;;;;;6.13;2.42;;;8.50;75.50;;;;;;4893552;29;20100;-85
2022/04/09 09:47:20;;;;;;;6.47;2.78;;;8.60;75.30;;;;;;4893763;29;20117;-85
2022/04/09 09:49:55;;;;;;;7.15;2.33;;;8.70;75.10;;;;;;4896939;29;20052;-85
2022/04/09 09:52:30;;;;;;;8.70;2.25;;;8.70;74.90;;;;;;4894722;29;20049;-86
2022/04/09 09:55:00;;;;;;;6.78;2.58;;;8.80;74.70;;;;;;4892916;29;20056;-86
2022/04/09 09:57:29;;;;;;;7.22;2.67;;;8.90;74.60;;;;;;4891041;29;20079;-86
2022/04/09 09:59:58;;;;;;;6.07;2.40;;;9.00;74.40;;;;;;4893144;29;20048;-85
2022/04/09 10:02:30;;;;;;;8.70;3.03;;;9.10;74.30;;;;;;4894839;29;20048;-86
2022/04/09 10:04:57;;;;;;;5.25;2.70;;;9.20;74.10;;;;;;4895689;29;20099;-85
2022/04/09 10:07:25;;;;;;;7.18;2.90;;;9.20;73.80;;;;;;4894856;29;20056;-85
2022/04/09 10:09:53;;;;;;;7.00;2.60;;;9.30;73.60;;;;;;4892700;29;20048;-85
2022/04/09 10:12:25;;;;;;;5.88;2.45;;;9.40;73.40;;;;;;4892970;29;20084;-85
2022/04/09 10:14:57;;;;;;;8.35;2.70;;;9.40;73.30;;;;;;4892878;29;20107;-84
2022/04/09 10:17:26;;;;;;;7.85;2.60;;;9.50;73.10;;;;;;4893199;29;20065;-86
2022/04/09 10:19:56;;;;;;;7.07;3.00;;;9.60;73.00;;;;;;4895830;29;20120;-85
2022/04/09 10:22:36;;;;;;;9.52;3.03;;;9.60;72.90;;;;;;4896612;29;20048;-85
2022/04/09 10:25:05;;;;;;;5.30;2.45;;;9.70;72.80;;;;;;4892681;29;20578;-86
2022/04/09 10:27:38;;;;;;;6.18;2.28;;;9.90;72.70;;;;;;4894396;29;20466;-85
2022/04/09 10:30:12;;;;;;;5.97;2.67;;;9.90;72.50;;;;;;4894565;29;20060;-86
2022/04/09 10:32:59;;;;;;;7.35;2.72;;;10.00;72.40;;;;;;4893074;29;20048;-85
2022/04/09 10:35:26;;;;;;;5.97;2.63;;;10.10;72.20;;;;;;4879592;29;20503;-85
2022/04/09 10:38:10;;;;;;;6.03;2.80;;;10.20;72.10;;;;;;4894889;29;20056;-85
2022/04/09 10:41:03;;;;;;;6.20;2.75;;;10.40;71.80;;;;;;4907786;29;20471;-86
2022/04/09 10:43:37;;;;;;;5.85;2.60;;;10.40;71.40;;;;;;4895521;29;20060;-85
2022/04/09 10:46:05;;;;;;;5.93;2.55;;;10.50;71.10;;;;;;4893043;29;20060;-85
2022/04/09 10:48:35;;;;;;;10.05;3.08;;;10.50;70.90;;;;;;4892882;29;20049;-85
2022/04/09 10:51:11;;;;;;;9.90;2.80;;;10.60;70.60;;;;;;4892846;29;20111;-85
2022/04/09 10:53:49;;;;;;;4.60;2.40;;;10.60;70.10;;;;;;4894089;29;20045;-85
2022/04/09 10:56:31;;;;;;;6.93;2.55;;;10.60;69.70;;;;;;4878276;29;20048;-85
2022/04/09 10:59:08;;;;;;;7.22;2.20;;;10.70;69.60;;;;;;4893214;29;20064;-85
2022/04/09 11:01:51;;;;;;;5.30;2.50;;;10.70;69.50;;;;;;4896078;29;20044;-85
2022/04/09 11:04:31;;;;;;;6.35;2.60;;;10.70;69.30;;;;;;4895521;29;20519;-85
2022/04/09 11:07:18;;;;;;;6.60;2.60;;;10.80;69.20;;;;;;4893690;29;20059;-85
2022/04/09 11:09:58;;;;;;;7.78;2.42;;;10.90;69.00;;;;;;4892450;29;20048;-85
2022/04/09 11:12:30;;;;;;;6.50;2.45;;;10.90;68.90;;;;;;4892399;29;20052;-85
2022/04/09 11:15:09;;;;;;;5.97;2.45;;;10.90;68.80;;;;;;4893869;29;20048;-84
2022/04/09 11:17:40;;;;;;;6.00;2.03;;;11.00;68.50;;;;;;4892690;29;20396;-85
2022/04/09 11:20:23;;;;;;;3.95;1.98;;;11.00;68.20;;;;;;4893823;29;20478;-85
2022/04/09 11:22:52;;;;;;;6.80;2.20;;;11.10;68.00;;;;;;4892157;29;20048;-85
2022/04/09 11:25:22;;;;;;;6.75;2.20;;;11.10;67.90;;;;;;4893446;29;20638;-85
2022/04/09 11:28:04;;;;;;;5.63;2.40;;;11.20;67.70;;;;;;4896462;29;20112;-85
2022/04/09 11:30:31;;;;;;;6.88;2.40;;;11.10;67.50;;;;;;4895614;29;20240;-85
2022/04/09 11:32:58;;;;;;;8.07;2.58;;;11.20;67.40;;;;;;4895693;29;20048;-85
2022/04/09 11:35:25;;;;;;;7.55;2.13;;;11.20;67.20;;;;;;4896121;29;20056;-84
2022/04/09 11:37:52;;;;;;;6.07;2.40;;;11.20;67.00;;;;;;4898073;29;20064;-84
2022/04/09 11:40:21;;;;;;;5.78;1.98;;;11.20;66.90;;;;;;4896766;29;20048;-85
2022/04/09 11:42:50;;;;;;;4.97;1.98;;;11.30;66.70;;;;;;4895627;29;20498;-84
2022/04/09 11:45:28;;;;;;;5.38;1.77;;;11.40;66.60;;;;;;4895585;29;20466;-85
2022/04/09 11:47:59;;;;;;;7.43;2.15;;;11.40;66.40;;;;;;4895678;29;20076;-84
2022/04/09 11:50:39;;;;;;;5.20;2.03;;;11.40;66.20;;;;;;4896842;29;20071;-84
2022/04/09 11:53:17;;;;;;;5.15;1.95;;;11.50;66.00;;;;;;4896919;29;20056;-84
2022/04/09 11:55:45;;;;;;;5.30;1.92;;;11.60;65.80;;;;;;4895782;29;20104;-85
2022/04/09 11:58:14;;;;;;;6.15;2.20;;;11.70;65.50;;;;;;4897770;29;20129;-84
2022/04/09 12:00:44;;;;;;;7.63;2.30;;;11.80;65.20;;;;;;4895351;29;20102;-84
2022/04/09 12:03:13;;;;;;;7.63;2.28;;;11.90;65.00;;;;;;4895316;29;20164;-84
2022/04/09 12:05:47;;;;;;;7.30;2.33;;;11.90;64.60;;;;;;4894967;29;20044;-84
2022/04/09 12:08:18;;;;;;;6.40;1.95;;;12.00;64.30;;;;;;4880583;29;20095;-84
2022/04/09 12:10:55;;;;;;;4.68;1.55;;;12.10;64.00;;;;;;4895580;29;20081;-84
2022/04/09 12:13:33;;;;;;;6.35;1.98;;;12.10;63.70;;;;;;4898303;29;20136;-84
2022/04/09 12:16:01;;;;;;;7.25;2.15;;;12.20;63.40;;;;;;4895315;29;20060;-84
2022/04/09 12:18:32;;;;;;;4.53;1.88;;;12.20;63.20;;;;;;4896525;29;20414;-84
2022/04/09 12:21:20;;;;;;;6.00;1.80;;;12.30;62.90;;;;;;4894685;29;20048;-84
2022/04/09 12:24:01;;;;;;;5.80;1.95;;;12.40;62.80;;;;;;4896495;29;20045;-84
2022/04/09 12:26:29;;;;;;;6.45;1.70;;;12.40;62.60;;;;;;4883436;29;20049;-84
2022/04/09 12:29:07;;;;;;;4.13;1.80;;;12.40;62.50;;;;;;4896011;29;20052;-84
2022/04/09 12:31:35;;;;;;;6.97;2.05;;;12.50;62.20;;;;;;4897986;29;20052;-84
2022/04/09 12:34:03;;;;;;;4.80;1.50;;;12.60;62.10;;;;;;4894520;29;20118;-84
2022/04/09 12:36:31;;;;;;;3.97;1.58;;;12.60;61.70;;;;;;4894642;29;20053;-84
2022/04/09 12:39:00;;;;;;;5.03;1.77;;;12.70;61.40;;;;;;4894148;29;20494;-84
2022/04/09 12:41:45;;;;;;;5.13;1.98;;;12.70;60.90;;;;;;4894948;29;20049;-84
2022/04/09 12:44:28;;;;;;;4.80;1.63;;;12.80;60.60;;;;;;4895650;29;20053;-84
2022/04/09 12:46:56;;;;;;;4.50;1.48;;;12.90;60.50;;;;;;4894376;29;20048;-85
2022/04/09 12:49:29;;;;;;;5.05;1.60;;;12.90;60.40;;;;;;4895918;29;20056;-85
2022/04/09 12:51:57;;;;;;;7.37;2.10;;;12.90;60.30;;;;;;4895945;29;20060;-84
2022/04/09 12:54:27;;;;;;;6.15;1.63;;;12.90;60.10;;;;;;4894703;29;20040;-85
2022/04/09 12:56:55;;;;;;;5.35;1.75;;;13.00;59.80;;;;;;4894326;29;20108;-84
2022/04/09 12:59:23;;;;;;;7.40;1.95;;;13.00;59.50;;;;;;4894430;29;20072;-85